KCHD/CHD METAR and TAF weather

Enter ICAO airport designator
Station Type Date Time Source
KCHD METAR 2018/07/21 03:47 UTC NOAA

KCHD 210347Z 24005KT 10SM CLR 38/16 A2981 RMK LAST


Station Type Date Time Source
KCHD Decoded METAR 2018/07/21 03:47 UTC NOAA

Chandler, Chandler Municipal Airport, AZ, United States (KCHD) 33-16-09N 111-48-40W
Jul 20, 2018 - 11:47 PM EDT / 2018.07.21 0347 UTC
Wind: from the WSW (240 degrees) at 6 MPH (5 KT):0
Visibility: 10 mile(s):0
Sky conditions: clear
Temperature: 100 F (38 C)
Heat index: 100.6 F (38.1 C):1
Dew Point: 60 F (16 C)
Relative Humidity: 27%
Pressure (altimeter): 29.81 in. Hg (1009 hPa)
ob: KCHD 210347Z 24005KT 10SM CLR 38/16 A2981 RMK LAST
cycle: 4

Station Type Date Time Source
KCHD TAF UTC NOAA

Error!


Example: see airport list